Terminal Aerodrome Forecast
Issued by NWS Brownsville, TX

Home | Current Version | Previous Version | Text Only | Print | Product List | Glossary On
Versions: 1 2 3 4 5 6 7 8 9 10 11 12 13
637
FTUS44 KBRO 230540
TAFHRL
TAF
KHRL 230540Z 2306/2406 12005KT P6SM SCT250
     FM231800 11010KT P6SM VCSH SCT025 BKN050
     FM232200 12006KT P6SM SCT050=

USA.gov is the U.S. government's official web portal to all federal, state and local government web resources and services.